Time;durP1;ratioP1;P1;durP2;ratioP2;P2;SDS_P1;SDS_P2;PMS_P1;PMS_P2;Temp;Humidity;BMP_temperature;BMP_pressure;BME280_temperature;BME280_humidity;BME280_pressure;Samples;Min_cycle;Max_cycle;Signal;HPM_P1;HPM_P2
2022/09/21 00:00:52;;;;;;;10.18;3.50;;;8.20;99.90;;;;;;4934316;28;156248;-74
2022/09/21 00:03:19;;;;;;;11.13;3.28;;;8.20;99.90;;;;;;4983546;28;20061;-75
2022/09/21 00:05:45;;;;;;;11.30;3.53;;;8.10;99.90;;;;;;4941897;28;206206;-74
2022/09/21 00:08:13;;;;;;;10.55;3.88;;;8.10;99.90;;;;;;4981795;28;20047;-75
2022/09/21 00:10:39;;;;;;;12.43;4.30;;;8.10;99.90;;;;;;4930441;28;214812;-73
2022/09/21 00:13:07;;;;;;;10.93;3.90;;;8.10;99.90;;;;;;4979217;28;20073;-74
2022/09/21 00:15:34;;;;;;;11.50;3.78;;;8.00;99.90;;;;;;4936577;28;205678;-74
2022/09/21 00:18:00;;;;;;;11.27;4.00;;;8.00;99.90;;;;;;4977076;28;20049;-74
2022/09/21 00:20:27;;;;;;;10.00;3.88;;;7.90;99.90;;;;;;4943973;28;206227;-74
2022/09/21 00:22:54;;;;;;;12.02;4.30;;;8.00;99.90;;;;;;4977793;28;20504;-74
2022/09/21 00:25:20;;;;;;;11.40;3.83;;;7.90;99.90;;;;;;4929755;28;208534;-74
2022/09/21 00:27:50;;;;;;;10.60;3.90;;;7.90;99.90;;;;;;4975283;28;20415;-75
2022/09/21 00:30:16;;;;;;;9.43;3.60;;;7.90;99.90;;;;;;4948034;28;164787;-74
2022/09/21 00:32:43;;;;;;;11.15;4.10;;;7.80;99.90;;;;;;4990532;28;20073;-74
2022/09/21 00:35:09;;;;;;;12.55;4.13;;;7.80;99.90;;;;;;4935163;28;209657;-74
2022/09/21 00:37:35;;;;;;;10.43;3.80;;;7.70;99.90;;;;;;4987434;28;20042;-74
2022/09/21 00:40:02;;;;;;;11.95;3.80;;;7.80;99.90;;;;;;4936022;28;206704;-74
2022/09/21 00:42:33;;;;;;;14.00;3.60;;;7.80;99.90;;;;;;4990469;28;20054;-74
2022/09/21 00:45:00;;;;;;;13.23;3.88;;;7.70;99.90;;;;;;4942370;28;210081;-74
2022/09/21 00:47:38;;;;;;;13.43;3.85;;;7.70;99.90;;;;;;4986858;28;20061;-73
2022/09/21 00:50:12;;;;;;;11.05;3.42;;;7.70;99.90;;;;;;4933350;28;221561;-75
2022/09/21 00:52:42;;;;;;;11.73;3.97;;;7.70;99.90;;;;;;4981197;28;20054;-75
2022/09/21 00:55:21;;;;;;;11.18;3.80;;;7.70;99.90;;;;;;4952941;28;208412;-74
2022/09/21 00:57:51;;;;;;;12.45;4.18;;;7.60;99.90;;;;;;4988065;28;20459;-74
2022/09/21 01:00:17;;;;;;;9.20;3.60;;;7.60;99.90;;;;;;4938126;28;208681;-75
2022/09/21 01:02:45;;;;;;;10.90;3.90;;;7.60;99.90;;;;;;4977096;28;20061;-74
2022/09/21 01:05:11;;;;;;;10.10;4.18;;;7.60;99.90;;;;;;4941972;28;212867;-74
2022/09/21 01:07:42;;;;;;;10.70;3.92;;;7.60;99.90;;;;;;4988351;28;20058;-73
2022/09/21 01:10:11;;;;;;;;;;;7.60;99.90;;;;;;4922817;28;209829;-73
2022/09/21 01:13:09;;;;;;;10.98;3.60;;;7.60;99.90;;;;;;4975853;28;19925;-74
2022/09/21 01:15:50;;;;;;;13.75;3.53;;;7.50;99.90;;;;;;4950527;28;214817;-74
2022/09/21 01:18:40;;;;;;;11.40;3.85;;;7.50;99.90;;;;;;4985271;28;20050;-74
2022/09/21 01:21:38;;;;;;;12.40;4.00;;;7.50;99.90;;;;;;4943894;28;209429;-74
2022/09/21 01:24:26;;;;;;;9.95;3.38;;;7.50;99.90;;;;;;4939758;28;208503;-74
2022/09/21 01:27:04;;;;;;;9.65;3.90;;;7.50;99.90;;;;;;4978625;28;20053;-74
2022/09/21 01:29:51;;;;;;;9.15;3.78;;;7.40;99.90;;;;;;4942754;28;209187;-74
2022/09/21 01:32:33;;;;;;;9.20;3.70;;;7.40;99.90;;;;;;4969028;28;20066;-73
2022/09/21 01:35:11;;;;;;;11.27;3.53;;;7.40;99.90;;;;;;4935647;28;208526;-74
2022/09/21 01:37:43;;;;;;;12.73;4.05;;;7.30;99.90;;;;;;4979339;28;20054;-74
2022/09/21 01:40:27;;;;;;;10.35;3.63;;;7.30;99.90;;;;;;4962905;28;97250;-74
2022/09/21 01:42:55;;;;;;;11.27;3.83;;;7.30;99.90;;;;;;4988207;28;20054;-75
2022/09/21 01:45:31;;;;;;;17.73;3.38;;;7.20;99.90;;;;;;4948713;28;212454;-74
2022/09/21 01:47:59;;;;;;;10.00;3.63;;;7.20;99.90;;;;;;4985120;28;20054;-74
2022/09/21 01:50:30;;;;;;;8.80;3.30;;;7.10;99.90;;;;;;4933192;28;239564;-75
2022/09/21 01:53:07;;;;;;;10.38;3.40;;;7.10;99.90;;;;;;4981284;28;20420;-74
2022/09/21 01:55:44;;;;;;;9.98;3.30;;;7.10;99.90;;;;;;4940670;28;212287;-74
2022/09/21 01:58:45;;;;;;;10.77;3.22;;;7.00;99.90;;;;;;4985937;28;20061;-74
2022/09/21 02:01:16;;;;;;;10.38;3.35;;;6.90;99.90;;;;;;4892310;28;206069;-74
2022/09/21 02:03:46;;;;;;;;;;;6.90;99.90;;;;;;4976905;28;20564;-74
2022/09/21 02:06:13;;;;;;;18.05;3.35;;;6.80;99.90;;;;;;4907668;28;209802;-74
2022/09/21 02:08:40;;;;;;;12.15;3.28;;;6.80;99.90;;;;;;4961027;28;20055;-74
2022/09/21 02:11:06;;;;;;;14.35;4.00;;;6.80;99.90;;;;;;4940831;28;125116;-74
2022/09/21 02:13:41;;;;;;;10.18;3.97;;;6.70;99.90;;;;;;4974065;28;20082;-74
2022/09/21 02:16:09;;;;;;;11.15;3.50;;;6.70;99.90;;;;;;4921231;28;210095;-74
2022/09/21 02:18:45;;;;;;;13.88;4.05;;;6.70;99.90;;;;;;4945348;28;20408;-74
2022/09/21 02:21:35;;;;;;;9.85;3.47;;;6.70;99.90;;;;;;4910691;28;210480;-74
2022/09/21 02:24:21;;;;;;;9.35;3.53;;;6.70;99.90;;;;;;4932601;28;215402;-74
2022/09/21 02:27:12;;;;;;;12.18;3.92;;;6.70;99.90;;;;;;4959703;28;20189;-74
2022/09/21 02:30:12;;;;;;;11.00;3.92;;;6.70;99.90;;;;;;4851008;29;208257;-75
2022/09/21 02:33:11;;;;;;;25.48;4.13;;;6.60;99.90;;;;;;4892004;29;20510;-74
2022/09/21 02:35:49;;;;;;;13.38;3.50;;;6.60;99.90;;;;;;4858083;29;29280;-74
2022/09/21 02:38:30;;;;;;;7.88;3.13;;;6.60;99.90;;;;;;4853016;29;20067;-74
2022/09/21 02:41:37;;;;;;;12.93;3.70;;;6.50;99.90;;;;;;4808104;29;220372;-74
2022/09/21 02:44:17;;;;;;;9.07;3.30;;;6.50;99.90;;;;;;4820085;29;210027;-75
2022/09/21 02:46:54;;;;;;;11.38;3.63;;;6.40;99.90;;;;;;4883202;29;20056;-73
2022/09/21 02:49:30;;;;;;;13.00;3.40;;;6.50;99.90;;;;;;4840133;29;207895;-73
2022/09/21 02:52:01;;;;;;;9.88;3.17;;;6.40;99.90;;;;;;4882711;29;20518;-73
2022/09/21 02:54:31;;;;;;;10.65;3.53;;;6.40;99.90;;;;;;4841210;29;215453;-73
2022/09/21 02:56:59;;;;;;;9.27;3.45;;;6.30;99.90;;;;;;4865826;29;20052;-73
2022/09/21 02:59:26;;;;;;;9.20;3.30;;;6.30;99.90;;;;;;4848211;29;210703;-73
2022/09/21 03:01:54;;;;;;;11.50;3.70;;;6.30;99.90;;;;;;4888499;29;20459;-73
2022/09/21 03:04:21;;;;;;;12.48;3.97;;;6.30;99.90;;;;;;4830231;29;214135;-74
2022/09/21 03:06:48;;;;;;;10.10;3.80;;;6.30;99.90;;;;;;4940658;28;20043;-74
2022/09/21 03:09:14;;;;;;;9.73;3.80;;;6.30;99.90;;;;;;4948287;28;211067;-73
2022/09/21 03:11:42;;;;;;;10.52;3.22;;;6.30;99.90;;;;;;4953006;28;20073;-74
2022/09/21 03:14:08;;;;;;;9.18;3.13;;;6.30;99.90;;;;;;4935721;28;222410;-73
2022/09/21 03:16:35;;;;;;;9.43;2.85;;;6.30;99.90;;;;;;4964801;28;20055;-74
2022/09/21 03:19:01;;;;;;;11.70;3.00;;;6.30;99.90;;;;;;4925166;28;211315;-73
2022/09/21 03:21:28;;;;;;;7.93;2.63;;;6.20;99.90;;;;;;4962574;28;20050;-74
2022/09/21 03:23:54;;;;;;;10.48;2.75;;;6.20;99.90;;;;;;4977862;28;20051;-74
2022/09/21 03:26:21;;;;;;;11.25;2.95;;;6.10;99.90;;;;;;4923261;28;206299;-74
2022/09/21 03:28:48;;;;;;;7.78;3.00;;;6.10;99.90;;;;;;4960184;28;20055;-74
2022/09/21 03:31:15;;;;;;;8.70;3.05;;;6.10;99.90;;;;;;4916407;28;207446;-74
2022/09/21 03:33:41;;;;;;;9.57;2.97;;;6.10;99.90;;;;;;4966386;28;20042;-73
2022/09/21 03:36:08;;;;;;;9.30;3.00;;;6.10;99.90;;;;;;4925446;28;210506;-73
2022/09/21 03:38:36;;;;;;;10.45;3.20;;;6.10;99.90;;;;;;4961035;28;20055;-73
2022/09/21 03:41:02;;;;;;;9.65;3.58;;;6.00;99.90;;;;;;4908873;28;214579;-73
2022/09/21 03:43:28;;;;;;;10.75;3.33;;;6.00;99.90;;;;;;4961502;28;20531;-73
2022/09/21 03:45:55;;;;;;;8.77;3.20;;;6.00;99.90;;;;;;4908736;28;189333;-73
2022/09/21 03:48:21;;;;;;;11.60;3.42;;;6.00;99.90;;;;;;4967397;28;20046;-73
2022/09/21 03:50:47;;;;;;;10.68;3.30;;;6.00;99.90;;;;;;4926784;28;205768;-75
2022/09/21 03:53:14;;;;;;;12.20;3.40;;;6.00;99.90;;;;;;4947148;28;20066;-74
2022/09/21 03:55:40;;;;;;;10.25;3.15;;;5.90;99.90;;;;;;4929597;28;210785;-74
2022/09/21 03:58:07;;;;;;;8.88;3.35;;;5.90;99.90;;;;;;4964844;28;20943;-73
2022/09/21 04:00:34;;;;;;;10.25;3.55;;;5.90;99.90;;;;;;4929640;28;206709;-73
2022/09/21 04:03:01;;;;;;;9.73;3.10;;;5.90;99.90;;;;;;4964777;28;20043;-73
2022/09/21 04:05:27;;;;;;;7.90;2.78;;;5.80;99.90;;;;;;4931505;28;206252;-74
2022/09/21 04:07:55;;;;;;;11.75;3.30;;;5.80;99.90;;;;;;4970265;28;20042;-74
2022/09/21 04:10:25;;;;;;;8.20;2.80;;;5.80;99.90;;;;;;4915800;28;195388;-74
2022/09/21 04:12:56;;;;;;;7.97;3.22;;;5.80;99.90;;;;;;4966010;28;20055;-74
2022/09/21 04:15:22;;;;;;;11.50;2.90;;;5.70;99.90;;;;;;4910329;28;208624;-74
2022/09/21 04:17:52;;;;;;;14.43;2.90;;;5.70;99.90;;;;;;4965497;28;20055;-74
2022/09/21 04:20:20;;;;;;;7.85;3.00;;;5.60;99.90;;;;;;4920491;28;208008;-73
2022/09/21 04:22:46;;;;;;;9.23;3.17;;;5.60;99.90;;;;;;4970943;28;20066;-74
2022/09/21 04:25:14;;;;;;;9.85;2.75;;;5.50;99.90;;;;;;4927839;28;207501;-74
2022/09/21 04:27:40;;;;;;;11.43;3.20;;;5.50;99.90;;;;;;4960444;28;20062;-74
2022/09/21 04:30:07;;;;;;;9.05;2.65;;;5.50;99.90;;;;;;4914005;28;205932;-74
2022/09/21 04:32:33;;;;;;;8.88;2.88;;;5.50;99.90;;;;;;4975758;28;20053;-75
2022/09/21 04:34:59;;;;;;;9.93;3.03;;;5.40;99.90;;;;;;4944446;28;212107;-74
2022/09/21 04:37:26;;;;;;;7.85;2.60;;;5.40;99.90;;;;;;4984399;28;20058;-74
2022/09/21 04:39:52;;;;;;;11.73;2.92;;;5.40;99.90;;;;;;4944437;28;208925;-74
2022/09/21 04:42:18;;;;;;;9.75;3.13;;;5.40;99.90;;;;;;4970571;28;20704;-76
2022/09/21 04:44:45;;;;;;;8.02;3.00;;;5.40;99.90;;;;;;4932605;28;220190;-74
2022/09/21 04:47:11;;;;;;;8.27;2.63;;;5.40;99.90;;;;;;4961836;28;20047;-74
2022/09/21 04:49:37;;;;;;;9.93;2.80;;;5.30;99.90;;;;;;4919808;28;206116;-74
2022/09/21 04:52:04;;;;;;;7.93;2.85;;;5.30;99.90;;;;;;4966018;28;20047;-74
2022/09/21 04:54:30;;;;;;;9.18;3.30;;;5.30;99.90;;;;;;4939757;28;214642;-74
2022/09/21 04:56:56;;;;;;;12.02;3.30;;;5.30;99.90;;;;;;4964788;28;20050;-74
2022/09/21 04:59:22;;;;;;;13.18;3.78;;;5.30;99.90;;;;;;4923352;28;210250;-73
2022/09/21 05:01:49;;;;;;;8.80;3.40;;;5.30;99.90;;;;;;4959451;28;20428;-74
2022/09/21 05:04:15;;;;;;;11.95;3.97;;;5.30;99.90;;;;;;4917714;28;218687;-74
2022/09/21 05:06:41;;;;;;;10.23;3.90;;;5.30;99.90;;;;;;4946053;28;20039;-74
2022/09/21 05:11:52;;;;;;;11.30;4.05;;;5.20;99.90;;;;;;4958245;28;20046;-74
2022/09/21 05:14:19;;;;;;;9.60;4.05;;;5.20;99.90;;;;;;4909890;28;218842;-73
2022/09/21 05:16:48;;;;;;;11.23;4.43;;;5.20;99.90;;;;;;4953247;28;20435;-74
2022/09/21 05:19:16;;;;;;;14.63;4.40;;;5.30;99.90;;;;;;4922047;28;215528;-73
2022/09/21 05:21:42;;;;;;;10.15;3.78;;;5.30;99.90;;;;;;4971661;28;20047;-73
2022/09/21 05:24:08;;;;;;;10.48;3.88;;;5.30;99.90;;;;;;4917415;28;220467;-74
2022/09/21 05:26:34;;;;;;;12.20;3.38;;;5.30;99.90;;;;;;4967280;28;20492;-73
2022/09/21 05:29:01;;;;;;;10.27;3.25;;;5.30;99.90;;;;;;4927330;28;252755;-73
2022/09/21 05:31:39;;;;;;;9.57;4.07;;;5.30;99.90;;;;;;4964218;28;20047;-73
2022/09/21 05:34:41;;;;;;;11.95;3.92;;;5.20;99.90;;;;;;4926932;28;235522;-74
2022/09/21 05:37:22;;;;;;;11.32;4.15;;;5.20;99.90;;;;;;4923409;29;20060;-72
2022/09/21 05:39:50;;;;;;;11.13;4.55;;;5.30;99.90;;;;;;4884207;29;205225;-73
2022/09/21 05:42:17;;;;;;;10.60;4.45;;;5.20;99.90;;;;;;4906157;29;20066;-73
2022/09/21 05:44:43;;;;;;;10.25;3.88;;;5.30;99.90;;;;;;4879919;29;196728;-74
2022/09/21 05:47:43;;;;;;;10.35;4.05;;;5.30;99.90;;;;;;4926083;29;20059;-73
2022/09/21 05:50:19;;;;;;;11.65;3.90;;;5.30;99.90;;;;;;4894030;29;140489;-73
2022/09/21 05:52:59;;;;;;;10.02;3.78;;;5.40;99.90;;;;;;4925499;29;20067;-73
2022/09/21 05:55:57;;;;;;;11.18;4.28;;;5.40;99.90;;;;;;4888635;28;210665;-72
2022/09/21 05:58:45;;;;;;;10.48;4.45;;;5.40;99.90;;;;;;4934319;29;20054;-72
2022/09/21 06:01:26;;;;;;;10.73;4.28;;;5.40;99.90;;;;;;4863677;29;240893;-71
2022/09/21 06:03:54;;;;;;;11.07;4.13;;;5.50;99.90;;;;;;4931842;29;20054;-71
2022/09/21 06:06:21;;;;;;;12.00;4.30;;;5.50;99.90;;;;;;4886662;29;207074;-70
2022/09/21 06:08:47;;;;;;;10.95;4.55;;;5.50;99.90;;;;;;4917005;29;20055;-71
2022/09/21 06:11:13;;;;;;;10.50;4.65;;;5.50;99.90;;;;;;4884159;29;209471;-70
2022/09/21 06:13:40;;;;;;;10.20;4.13;;;5.60;99.90;;;;;;4961729;28;20061;-70
2022/09/21 06:16:07;;;;;;;12.13;4.45;;;5.60;99.90;;;;;;4916548;28;135972;-71
2022/09/21 06:18:38;;;;;;;12.75;4.65;;;5.60;99.90;;;;;;4968564;28;20066;-71
2022/09/21 06:21:05;;;;;;;11.93;4.80;;;5.70;99.90;;;;;;4942011;28;216677;-71
2022/09/21 06:23:31;;;;;;;12.45;5.78;;;5.70;99.90;;;;;;4966004;28;20551;-71
2022/09/21 06:25:57;;;;;;;13.68;6.25;;;5.80;99.90;;;;;;4915424;28;205173;-71
2022/09/21 06:28:23;;;;;;;11.73;5.63;;;5.90;99.90;;;;;;4969028;28;20035;-71
2022/09/21 06:30:54;;;;;;;12.25;5.47;;;5.90;99.90;;;;;;4919689;28;221397;-71
2022/09/21 06:33:22;;;;;;;12.60;5.65;;;6.00;99.90;;;;;;4953614;28;20058;-70
2022/09/21 06:35:57;;;;;;;16.92;5.78;;;6.10;99.90;;;;;;4922205;28;219637;-71
2022/09/21 06:38:24;;;;;;;12.80;6.03;;;6.10;99.90;;;;;;4969806;28;20059;-71
2022/09/21 06:40:51;;;;;;;13.80;7.05;;;6.20;99.90;;;;;;4907989;28;216007;-70
2022/09/21 06:43:18;;;;;;;15.43;6.53;;;6.20;99.90;;;;;;4968310;28;20054;-72
2022/09/21 06:45:52;;;;;;;16.80;8.00;;;6.30;99.90;;;;;;4934113;28;207126;-71
2022/09/21 06:48:19;;;;;;;20.20;9.35;;;6.40;99.90;;;;;;4982950;28;20051;-70
2022/09/21 06:50:45;;;;;;;20.52;9.60;;;6.50;99.90;;;;;;4933304;28;215205;-70
2022/09/21 06:53:11;;;;;;;20.10;8.48;;;6.60;99.90;;;;;;4967792;28;20051;-71
2022/09/21 06:55:37;;;;;;;16.75;7.82;;;6.70;99.90;;;;;;4924907;28;208999;-71
2022/09/21 06:58:04;;;;;;;20.88;9.27;;;6.80;99.90;;;;;;4994075;28;20264;-71
2022/09/21 07:00:31;;;;;;;21.42;9.10;;;6.90;99.90;;;;;;4942858;28;209921;-71
2022/09/21 07:02:57;;;;;;;18.58;9.40;;;7.10;99.90;;;;;;4975504;28;20074;-72
2022/09/21 07:05:24;;;;;;;21.38;9.25;;;7.20;99.90;;;;;;4937071;28;209980;-72
2022/09/21 07:07:50;;;;;;;18.73;9.32;;;7.20;99.90;;;;;;4987437;28;20061;-72
2022/09/21 07:10:16;;;;;;;21.98;8.48;;;7.40;99.90;;;;;;4968594;28;225527;-72
2022/09/21 07:12:43;;;;;;;18.05;8.10;;;7.50;99.90;;;;;;4990680;28;20415;-71
2022/09/21 07:15:09;;;;;;;24.88;9.25;;;7.60;99.90;;;;;;4951302;28;211983;-72
2022/09/21 07:17:38;;;;;;;21.85;7.97;;;7.70;99.90;;;;;;4996517;28;20057;-71
2022/09/21 07:20:06;;;;;;;24.23;8.73;;;7.80;99.90;;;;;;4951748;28;209809;-71
2022/09/21 07:22:33;;;;;;;17.27;8.13;;;8.00;99.90;;;;;;4996628;28;20054;-71
2022/09/21 07:24:59;;;;;;;20.38;7.85;;;8.00;99.90;;;;;;4957887;28;213289;-71
2022/09/21 07:27:28;;;;;;;24.85;7.47;;;8.10;99.90;;;;;;4993267;28;20034;-71
2022/09/21 07:29:54;;;;;;;18.70;7.60;;;8.20;99.90;;;;;;4950237;28;216223;-71
2022/09/21 07:32:20;;;;;;;13.45;6.57;;;8.30;99.90;;;;;;4996425;28;20037;-71
2022/09/21 07:34:46;;;;;;;20.27;7.47;;;8.50;99.90;;;;;;4945925;28;211538;-71
2022/09/21 07:37:13;;;;;;;18.23;7.32;;;8.60;99.90;;;;;;4990456;28;20484;-72
2022/09/21 07:39:40;;;;;;;17.50;7.03;;;8.80;99.90;;;;;;4941871;28;210772;-71
2022/09/21 07:42:06;;;;;;;15.93;6.70;;;9.20;99.90;;;;;;4988569;28;20046;-71
2022/09/21 07:44:33;;;;;;;19.10;5.60;;;9.80;99.90;;;;;;4948220;28;216651;-71
2022/09/21 07:47:00;;;;;;;15.48;4.32;;;10.60;99.90;;;;;;4994340;28;20054;-71
2022/09/21 07:49:26;;;;;;;14.30;4.40;;;11.60;99.90;;;;;;4944366;28;210514;-72
2022/09/21 07:51:53;;;;;;;16.48;3.67;;;12.40;99.90;;;;;;4967207;28;20065;-72
2022/09/21 07:54:19;;;;;;;11.18;2.40;;;13.20;99.90;;;;;;4946641;28;208619;-71
2022/09/21 07:59:04;;;;;;;13.38;2.40;;;13.90;99.90;;;;;;4996683;28;20697;-71
2022/09/21 07:59:31;;;;;;;10.90;2.25;;;14.60;99.90;;;;;;4944561;28;218993;-72
2022/09/21 08:01:58;;;;;;;15.45;2.10;;;15.40;99.90;;;;;;4966458;28;20061;-71
2022/09/21 08:04:25;;;;;;;8.95;2.10;;;15.50;99.90;;;;;;4940505;28;216935;-71
2022/09/21 08:06:51;;;;;;;15.02;2.50;;;15.70;99.90;;;;;;4994376;28;20054;-71
2022/09/21 08:09:17;;;;;;;11.45;2.10;;;16.20;99.90;;;;;;4941174;28;222911;-71
2022/09/21 08:11:45;;;;;;;9.75;1.70;;;16.60;99.90;;;;;;4990770;28;20038;-72
2022/09/21 08:14:18;;;;;;;11.77;2.10;;;17.10;99.90;;;;;;4940277;28;210697;-72
2022/09/21 08:16:47;;;;;;;12.43;2.00;;;17.50;99.90;;;;;;4996422;28;20055;-72
2022/09/21 08:19:16;;;;;;;13.03;1.97;;;18.10;99.90;;;;;;4940502;28;210348;-72
2022/09/21 08:21:42;;;;;;;11.32;1.73;;;18.30;99.90;;;;;;4995433;28;20515;-72
2022/09/21 08:24:09;;;;;;;12.35;1.73;;;18.40;99.90;;;;;;4945745;28;210440;-72
2022/09/21 08:26:35;;;;;;;11.27;1.70;;;18.80;99.90;;;;;;4988345;28;20062;-73
2022/09/21 08:29:02;;;;;;;10.17;1.77;;;18.90;99.90;;;;;;4946535;28;214244;-71
2022/09/21 08:31:29;;;;;;;11.25;1.67;;;19.30;99.90;;;;;;4993006;28;20050;-73
2022/09/21 08:33:56;;;;;;;10.18;1.80;;;19.80;99.90;;;;;;4983862;28;211265;-69
2022/09/21 08:36:22;;;;;;;9.55;1.30;;;20.20;99.90;;;;;;4959800;28;81944;-72
2022/09/21 08:38:49;;;;;;;10.18;1.50;;;20.70;99.90;;;;;;4990080;28;20054;-71
2022/09/21 08:41:21;;;;;;;9.85;1.52;;;20.70;99.90;;;;;;4954460;28;214037;-72
2022/09/21 08:43:52;;;;;;;9.55;1.50;;;20.40;99.90;;;;;;4983111;28;20047;-72
2022/09/21 08:46:26;;;;;;;12.23;1.60;;;20.80;99.90;;;;;;4948532;28;169050;-72
2022/09/21 08:48:53;;;;;;;9.73;1.58;;;21.10;99.90;;;;;;4988381;28;20046;-71
2022/09/21 08:51:27;;;;;;;12.05;1.45;;;21.00;99.90;;;;;;4946680;28;210836;-71
2022/09/21 08:53:58;;;;;;;10.07;1.52;;;21.20;99.90;;;;;;4991623;28;20057;-71
2022/09/21 08:56:25;;;;;;;;;;;21.10;99.90;;;;;;4930331;28;205764;-71
2022/09/21 08:58:51;;;;;;;10.95;1.55;;;20.80;98.20;;;;;;4984157;28;20306;-71
2022/09/21 09:01:38;;;;;;;8.35;1.45;;;21.30;99.90;;;;;;4943259;28;172841;-71
2022/09/21 09:04:38;;;;;;;11.00;1.60;;;21.70;99.90;;;;;;4942299;28;210973;-71
2022/09/21 09:07:29;;;;;;;8.27;1.45;;;22.30;98.90;;;;;;4987648;28;20327;-71
2022/09/21 09:10:13;;;;;;;7.22;1.23;;;22.80;98.90;;;;;;4944915;28;209035;-71
2022/09/21 09:13:18;;;;;;;7.18;1.10;;;23.30;95.20;;;;;;4988569;28;20053;-70
2022/09/21 09:15:51;;;;;;;8.65;1.15;;;23.00;91.80;;;;;;4941165;28;210248;-70
2022/09/21 09:18:36;;;;;;;11.27;1.42;;;22.60;94.90;;;;;;4986774;28;20072;-71
2022/09/21 09:21:26;;;;;;;10.55;1.60;;;21.90;93.30;;;;;;4941948;28;209691;-71
2022/09/21 09:24:01;;;;;;;8.88;1.48;;;21.80;94.40;;;;;;4985758;28;20059;-71
2022/09/21 09:26:51;;;;;;;9.75;1.30;;;22.30;95.30;;;;;;4949134;28;192813;-71
2022/09/21 09:29:42;;;;;;;8.93;1.40;;;21.90;93.20;;;;;;4949681;28;229017;-71
2022/09/21 09:32:14;;;;;;;9.60;1.33;;;20.80;94.30;;;;;;4998323;28;20054;-72
2022/09/21 09:35:09;;;;;;;9.65;1.40;;;21.10;95.20;;;;;;4945003;28;210500;-71
2022/09/21 09:37:41;;;;;;;9.40;1.45;;;21.30;93.70;;;;;;4941156;28;20055;-71
2022/09/21 09:40:07;;;;;;;9.40;1.30;;;20.70;93.30;;;;;;4904867;28;209436;-70
2022/09/21 09:43:03;;;;;;;10.05;1.30;;;19.90;93.90;;;;;;4947654;28;20048;-70
2022/09/21 09:45:30;;;;;;;9.57;1.50;;;19.00;93.50;;;;;;4820609;29;204967;-70
2022/09/21 09:48:27;;;;;;;11.60;1.45;;;18.30;95.00;;;;;;4874174;29;20482;-70
2022/09/21 09:50:53;;;;;;;8.23;1.10;;;17.80;94.20;;;;;;4831136;29;205867;-70
2022/09/21 09:53:22;;;;;;;7.85;1.30;;;17.30;95.20;;;;;;4867504;29;20053;-70
2022/09/21 09:55:51;;;;;;;9.10;1.17;;;17.10;95.50;;;;;;4820051;29;206662;-70
2022/09/21 09:58:27;;;;;;;8.88;1.30;;;17.00;96.00;;;;;;4871973;29;20061;-71
2022/09/21 10:00:55;;;;;;;8.90;1.30;;;17.10;96.30;;;;;;4816268;29;175495;-71
2022/09/21 10:03:23;;;;;;;6.43;1.00;;;17.10;96.20;;;;;;4856182;29;20060;-70
2022/09/21 10:05:50;;;;;;;7.85;1.40;;;17.10;96.30;;;;;;4820431;29;210830;-71
2022/09/21 10:08:38;;;;;;;9.52;1.30;;;17.00;96.10;;;;;;4871391;29;20470;-71
2022/09/21 10:11:04;;;;;;;7.55;1.10;;;17.00;96.10;;;;;;4824941;29;208577;-71
2022/09/21 10:13:34;;;;;;;6.80;1.10;;;17.30;96.10;;;;;;4871109;29;20053;-71
2022/09/21 10:16:10;;;;;;;10.25;1.10;;;18.00;96.20;;;;;;4853606;29;206710;-63
2022/09/21 10:18:49;;;;;;;9.75;1.30;;;18.00;96.50;;;;;;4864039;29;20056;-71
2022/09/21 10:21:20;;;;;;;10.30;1.40;;;18.00;95.70;;;;;;4856234;29;206819;-71
2022/09/21 10:23:58;;;;;;;11.15;1.35;;;17.90;95.60;;;;;;4997759;28;20052;-71
2022/09/21 10:26:31;;;;;;;7.68;1.25;;;17.90;95.50;;;;;;4936344;28;205977;-70
2022/09/21 10:28:59;;;;;;;7.88;1.30;;;18.80;95.80;;;;;;4968804;28;212744;-70
2022/09/21 10:31:28;;;;;;;8.35;1.13;;;19.80;96.10;;;;;;4960705;28;153628;-71
2022/09/21 10:34:06;;;;;;;10.30;1.10;;;20.40;94.60;;;;;;4990501;28;20068;-71
2022/09/21 10:36:35;;;;;;;9.55;1.13;;;21.30;94.60;;;;;;4922269;28;26987;-71
2022/09/21 10:39:10;;;;;;;8.20;1.20;;;21.90;94.10;;;;;;4946714;28;210734;-70
2022/09/21 10:41:37;;;;;;;8.57;1.20;;;22.50;91.40;;;;;;4979843;28;20514;-71
2022/09/21 10:44:10;;;;;;;9.68;1.52;;;23.00;92.50;;;;;;4939517;28;212577;-71
2022/09/21 10:46:36;;;;;;;8.05;0.90;;;23.40;91.90;;;;;;4982645;28;20526;-71
2022/09/21 10:49:02;;;;;;;6.80;1.10;;;23.70;90.90;;;;;;4937201;28;229462;-71
2022/09/21 10:51:30;;;;;;;7.53;1.23;;;23.80;87.40;;;;;;4983374;28;20058;-72
2022/09/21 10:53:56;;;;;;;7.75;1.27;;;24.00;88.50;;;;;;4974822;28;210936;-71
2022/09/21 10:56:23;;;;;;;7.30;1.00;;;24.50;86.00;;;;;;4948596;28;64281;-71
2022/09/21 10:59:09;;;;;;;7.68;1.25;;;24.20;83.40;;;;;;4965027;28;20059;-72
2022/09/21 11:01:36;;;;;;;9.52;1.15;;;24.50;80.90;;;;;;4936552;28;206160;-72
2022/09/21 11:04:08;;;;;;;10.40;1.35;;;24.60;82.40;;;;;;4938957;28;210383;-70
2022/09/21 11:06:43;;;;;;;6.65;1.10;;;25.10;79.50;;;;;;4999769;28;20488;-71
2022/09/21 11:09:18;;;;;;;8.35;1.00;;;25.40;78.40;;;;;;4938754;28;214183;-71
2022/09/21 11:12:16;;;;;;;8.13;1.05;;;25.70;78.10;;;;;;4980426;28;20051;-71
2022/09/21 11:14:52;;;;;;;6.25;1.05;;;26.20;73.90;;;;;;4950187;28;211987;-72
2022/09/21 11:17:30;;;;;;;8.65;1.05;;;26.60;74.60;;;;;;4995286;28;20507;-72
2022/09/21 11:20:08;;;;;;;7.35;1.10;;;26.80;73.30;;;;;;4933771;28;211112;-71
2022/09/21 11:22:56;;;;;;;8.27;1.20;;;27.20;72.20;;;;;;4988711;28;20051;-71
2022/09/21 11:25:25;;;;;;;6.40;1.10;;;27.70;68.10;;;;;;4946211;28;212574;-71
2022/09/21 11:28:05;;;;;;;7.38;1.00;;;27.70;67.30;;;;;;4991030;28;20061;-72
2022/09/21 11:30:46;;;;;;;7.03;0.98;;;28.00;68.30;;;;;;4942274;28;210491;-71
2022/09/21 11:33:40;;;;;;;6.97;1.02;;;28.20;67.00;;;;;;4990568;28;20058;-71
2022/09/21 11:36:30;;;;;;;8.10;1.10;;;28.50;62.90;;;;;;4952690;28;207004;-71
2022/09/21 11:39:00;;;;;;;7.88;1.05;;;28.80;65.20;;;;;;4978014;28;209032;-71
2022/09/21 11:41:28;;;;;;;9.30;1.23;;;29.00;63.60;;;;;;4975896;28;185494;-72
2022/09/21 11:44:08;;;;;;;7.28;1.02;;;29.30;64.30;;;;;;4989718;28;20442;-73
2022/09/21 11:46:37;;;;;;;6.75;1.20;;;29.90;63.60;;;;;;4936454;28;209525;-72
2022/09/21 11:49:20;;;;;;;7.28;1.35;;;30.20;61.60;;;;;;4946002;28;209065;-72
2022/09/21 11:52:14;;;;;;;6.85;1.13;;;30.60;59.80;;;;;;4986263;28;20053;-72
2022/09/21 11:54:57;;;;;;;8.43;1.20;;;30.60;59.20;;;;;;4938465;28;210467;-73
2022/09/21 11:57:29;;;;;;;8.77;1.20;;;30.50;54.40;;;;;;4986552;28;20057;-72
2022/09/21 12:00:04;;;;;;;6.72;1.02;;;29.80;56.90;;;;;;4939703;28;211011;-72
2022/09/21 12:02:51;;;;;;;7.75;1.00;;;29.70;53.30;;;;;;4994882;28;20512;-72
2022/09/21 12:05:42;;;;;;;7.25;1.00;;;29.40;54.20;;;;;;4952960;28;211598;-72
2022/09/21 12:08:40;;;;;;;5.25;0.90;;;29.40;57.20;;;;;;4985747;28;20062;-72
2022/09/21 12:11:32;;;;;;;5.65;0.90;;;29.60;52.50;;;;;;4960189;28;207983;-72
2022/09/21 12:14:07;;;;;;;5.88;0.90;;;29.50;54.50;;;;;;4973381;28;209354;-73
2022/09/21 12:16:44;;;;;;;6.35;1.10;;;29.90;55.10;;;;;;4965238;28;20053;-72
2022/09/21 12:19:39;;;;;;;5.90;1.05;;;30.30;51.70;;;;;;4937323;28;218711;-72
2022/09/21 12:22:11;;;;;;;7.15;1.02;;;30.40;53.40;;;;;;4973364;28;20057;-72
2022/09/21 12:24:46;;;;;;;5.97;1.00;;;30.50;50.80;;;;;;4949291;28;209934;-72
2022/09/21 12:27:33;;;;;;;7.93;1.10;;;29.70;51.80;;;;;;4997873;28;20050;-73
2022/09/21 12:30:19;;;;;;;5.47;0.93;;;29.50;51.20;;;;;;4938482;28;210225;-72
2022/09/21 12:33:04;;;;;;;6.78;1.02;;;29.60;49.00;;;;;;4983076;28;20061;-72
2022/09/21 12:35:53;;;;;;;5.20;0.90;;;29.40;50.70;;;;;;4950464;28;217196;-71
2022/09/21 12:38:34;;;;;;;6.67;1.00;;;29.40;48.30;;;;;;4986600;28;20070;-72
2022/09/21 12:41:04;;;;;;;;;;;29.30;47.90;;;;;;4915981;28;213018;-72
2022/09/21 12:43:36;;;;;;;7.38;0.98;;;27.70;47.30;;;;;;4966671;28;19921;-72
2022/09/21 12:46:27;;;;;;;6.05;0.95;;;25.90;51.20;;;;;;4957954;28;206756;-72
2022/09/21 12:48:55;;;;;;;7.07;1.10;;;25.00;52.30;;;;;;4985174;28;20061;-73
2022/09/21 12:51:33;;;;;;;6.22;1.00;;;24.30;53.60;;;;;;4952351;28;265805;-71
2022/09/21 12:54:15;;;;;;;6.13;1.00;;;24.20;54.60;;;;;;4953952;28;207639;-71
2022/09/21 12:56:59;;;;;;;8.57;1.20;;;24.70;56.50;;;;;;4980504;28;205572;-72
2022/09/21 12:59:34;;;;;;;6.88;1.00;;;24.90;56.90;;;;;;4934714;28;216725;-72
2022/09/21 13:02:23;;;;;;;6.22;0.95;;;25.60;55.30;;;;;;4982557;28;20062;-72
2022/09/21 13:05:35;;;;;;;8.65;1.10;;;26.60;52.10;;;;;;4933384;28;206218;-72
2022/09/21 13:08:09;;;;;;;7.32;1.10;;;27.30;55.20;;;;;;4989679;28;20058;-73
2022/09/21 13:10:56;;;;;;;6.97;1.10;;;28.20;55.80;;;;;;4940429;28;209355;-72
2022/09/21 13:13:42;;;;;;;7.18;1.02;;;28.80;55.10;;;;;;4982677;28;20105;-72
2022/09/21 13:16:30;;;;;;;7.00;1.00;;;29.10;53.80;;;;;;4945570;28;215751;-71